Time;durP1;ratioP1;P1;durP2;ratioP2;P2;SDS_P1;SDS_P2;PMS_P1;PMS_P2;Temp;Humidity;BMP_temperature;BMP_pressure;BME280_temperature;BME280_humidity;BME280_pressure;Samples;Min_cycle;Max_cycle;Signal;HPM_P1;HPM_P2
2024/01/08 00:02:01;;;;;;;1999.90;999.90;;;-1.10;99.90;;;;;;5004103;28;20044;-77
2024/01/08 00:04:26;;;;;;;1999.90;999.90;;;-1.10;99.90;;;;;;4988460;28;20030;-76
2024/01/08 00:06:52;;;;;;;1999.90;999.90;;;-1.20;99.90;;;;;;5004717;28;20122;-77
2024/01/08 00:09:18;;;;;;;1999.90;999.90;;;-1.30;99.90;;;;;;5005308;28;20602;-77
2024/01/08 00:11:43;;;;;;;1999.90;999.90;;;-1.30;99.90;;;;;;5004932;28;20038;-77
2024/01/08 00:14:10;;;;;;;1999.90;999.90;;;-1.40;99.90;;;;;;4987434;28;20502;-77
2024/01/08 00:16:35;;;;;;;1999.90;999.90;;;-1.40;99.90;;;;;;5004482;28;20061;-77
2024/01/08 00:19:01;;;;;;;1999.90;999.90;;;-1.50;99.90;;;;;;5003383;28;20057;-77
2024/01/08 00:21:27;;;;;;;1999.90;999.90;;;-1.50;99.90;;;;;;5003662;28;20058;-76
2024/01/08 00:23:54;;;;;;;1999.90;999.90;;;-1.20;99.90;;;;;;5004638;28;20098;-77
2024/01/08 00:26:20;;;;;;;1999.90;999.90;;;-1.50;99.90;;;;;;5004797;28;20050;-76
2024/01/08 00:28:45;;;;;;;1999.90;999.90;;;-1.50;99.90;;;;;;4987012;28;20486;-76
2024/01/08 00:31:11;;;;;;;1999.90;999.90;;;-1.50;99.90;;;;;;5004351;28;20391;-76
2024/01/08 00:33:36;;;;;;;1999.90;999.90;;;-1.60;99.90;;;;;;5004616;28;20045;-77
2024/01/08 00:36:02;;;;;;;1999.90;999.90;;;-1.60;99.90;;;;;;5003158;28;20060;-76
2024/01/08 00:38:27;;;;;;;1999.90;999.90;;;-1.70;99.90;;;;;;4987342;28;20034;-77
2024/01/08 00:40:53;;;;;;;1999.90;999.90;;;-1.70;99.90;;;;;;5004633;28;20501;-78
2024/01/08 00:43:18;;;;;;;1999.90;999.90;;;-1.70;99.90;;;;;;4987724;28;20132;-77
2024/01/08 00:45:44;;;;;;;1999.90;999.90;;;-1.80;99.90;;;;;;5002966;28;20103;-76
2024/01/08 00:48:10;;;;;;;1999.90;999.90;;;-1.80;99.90;;;;;;4987964;28;20046;-77
2024/01/08 00:50:36;;;;;;;1999.90;999.90;;;-0.70;99.90;;;;;;5006026;28;20041;-77
2024/01/08 00:53:01;;;;;;;1999.90;999.90;;;-1.80;99.90;;;;;;4990937;28;20875;-77
2024/01/08 00:55:30;;;;;;;1999.90;999.90;;;-1.80;99.90;;;;;;5009429;28;20038;-77
2024/01/08 00:57:58;;;;;;;1999.90;999.90;;;-1.80;99.90;;;;;;4991729;28;20457;-77
2024/01/08 01:00:24;;;;;;;1999.90;999.90;;;-1.90;99.90;;;;;;5008078;28;20410;-76
2024/01/08 01:02:49;;;;;;;1999.90;999.90;;;-1.90;99.90;;;;;;5007477;28;20046;-76
2024/01/08 01:05:15;;;;;;;1999.90;999.90;;;-1.90;99.90;;;;;;4992148;28;20318;-77
2024/01/08 01:07:40;;;;;;;1999.90;999.90;;;-1.90;99.90;;;;;;4991899;28;20509;-77
2024/01/08 01:10:07;;;;;;;1999.90;999.90;;;-1.50;99.90;;;;;;4991036;28;20052;-76
2024/01/08 01:12:32;;;;;;;1999.90;999.90;;;-1.90;99.90;;;;;;4990901;28;20038;-77
2024/01/08 01:14:58;;;;;;;1999.90;999.90;;;-1.80;99.90;;;;;;5007118;28;20482;-77
2024/01/08 01:17:23;;;;;;;1999.90;999.90;;;-1.80;99.90;;;;;;5007628;28;20060;-76
2024/01/08 01:19:49;;;;;;;1999.90;999.90;;;-1.80;99.90;;;;;;4992149;28;20050;-77
2024/01/08 01:22:14;;;;;;;1999.90;999.90;;;-0.60;99.90;;;;;;5006362;28;20582;-76
2024/01/08 01:24:40;;;;;;;1999.90;999.90;;;-1.60;99.90;;;;;;5006577;28;20038;-77
2024/01/08 01:27:06;;;;;;;1999.90;999.90;;;-1.60;99.90;;;;;;5007771;28;20042;-77
2024/01/08 01:29:31;;;;;;;1999.90;999.90;;;-1.60;99.90;;;;;;4987321;28;20033;-77
2024/01/08 01:31:57;;;;;;;1999.90;999.90;;;-1.60;99.90;;;;;;5006939;28;21311;-76
2024/01/08 01:34:23;;;;;;;1999.90;999.90;;;-1.50;99.90;;;;;;4990601;28;20045;-77
2024/01/08 01:36:48;;;;;;;1999.90;999.90;;;-1.50;99.90;;;;;;5007296;28;20065;-77
2024/01/08 01:39:14;;;;;;;1999.90;999.90;;;-1.50;99.90;;;;;;4990550;28;20044;-77
2024/01/08 01:41:40;;;;;;;1999.90;999.90;;;-1.40;99.90;;;;;;4989764;28;20129;-77
2024/01/08 01:44:05;;;;;;;1999.90;999.90;;;-1.50;99.90;;;;;;5005992;28;20443;-77
2024/01/08 01:46:44;;;;;;;1999.90;999.90;;;-1.40;99.90;;;;;;4990315;28;20030;-77
2024/01/08 01:49:18;;;;;;;1999.90;999.90;;;-1.40;99.90;;;;;;5006607;28;20038;-77
2024/01/08 01:51:45;;;;;;;1999.90;999.90;;;-1.40;99.90;;;;;;5006512;28;20034;-77
2024/01/08 01:54:15;;;;;;;1999.90;999.90;;;-1.40;99.90;;;;;;5007616;28;20058;-77
2024/01/08 01:56:43;;;;;;;1999.90;999.90;;;-1.40;99.90;;;;;;4990314;28;20041;-77
2024/01/08 01:59:10;;;;;;;1999.90;999.90;;;-1.40;99.90;;;;;;5006891;28;20048;-77
2024/01/08 02:01:36;;;;;;;1999.90;999.90;;;-1.40;99.90;;;;;;5005830;28;20081;-76
2024/01/08 02:04:03;;;;;;;1999.90;999.90;;;-1.30;99.90;;;;;;4990110;28;20034;-77
2024/01/08 02:06:29;;;;;;;1999.90;999.90;;;-1.30;99.90;;;;;;4990841;28;20073;-77
2024/01/08 02:08:55;;;;;;;1999.90;999.90;;;-1.30;99.90;;;;;;5006942;28;20026;-77
2024/01/08 02:11:21;;;;;;;1999.90;999.90;;;-1.30;99.90;;;;;;5006213;28;20046;-77
2024/01/08 02:13:48;;;;;;;1999.90;999.90;;;-1.30;99.90;;;;;;4990378;28;20040;-76
2024/01/08 02:16:14;;;;;;;1999.90;999.90;;;-0.40;99.90;;;;;;5006883;28;20077;-76
2024/01/08 02:18:40;;;;;;;1999.90;999.90;;;-1.20;99.90;;;;;;5006532;28;20116;-77
2024/01/08 02:21:06;;;;;;;1999.90;999.90;;;-1.20;99.90;;;;;;4990590;28;20053;-77
2024/01/08 02:23:31;;;;;;;1999.90;999.90;;;-1.20;99.90;;;;;;5007009;28;21311;-77
2024/01/08 02:25:57;;;;;;;1999.90;999.90;;;-1.10;99.90;;;;;;5007224;28;20073;-76
2024/01/08 02:28:23;;;;;;;1999.90;999.90;;;-1.10;99.90;;;;;;5004067;28;20553;-78
2024/01/08 02:30:49;;;;;;;1999.90;999.90;;;-1.10;99.90;;;;;;4989924;28;20080;-77
2024/01/08 02:33:14;;;;;;;1999.90;999.90;;;-1.10;99.90;;;;;;4990375;28;20041;-77
2024/01/08 02:35:41;;;;;;;1999.90;999.90;;;-1.00;99.90;;;;;;4988608;28;20061;-77
2024/01/08 02:38:06;;;;;;;1999.90;999.90;;;-1.00;99.90;;;;;;4989759;28;20053;-77
2024/01/08 02:40:32;;;;;;;1999.90;999.90;;;-1.00;99.90;;;;;;4987755;28;20042;-77
2024/01/08 02:42:58;;;;;;;1999.90;999.90;;;-1.00;99.90;;;;;;4989200;28;20136;-77
2024/01/08 02:45:23;;;;;;;1999.90;999.90;;;-0.90;99.90;;;;;;5005198;28;20502;-76
2024/01/08 02:47:49;;;;;;;1999.90;999.90;;;-0.90;99.90;;;;;;5006909;28;20038;-77
2024/01/08 02:50:14;;;;;;;1999.90;999.90;;;-0.90;99.90;;;;;;4990308;28;20042;-77
2024/01/08 02:52:40;;;;;;;1999.90;999.90;;;-0.90;99.90;;;;;;4989462;28;20388;-77
2024/01/08 02:55:06;;;;;;;1999.90;999.90;;;-0.80;99.90;;;;;;5006459;28;20045;-77
2024/01/08 02:57:33;;;;;;;1999.90;999.90;;;-0.80;99.90;;;;;;5006255;28;20038;-78
2024/01/08 02:59:59;;;;;;;1999.90;999.90;;;-0.80;99.90;;;;;;5004373;28;20051;-77
2024/01/08 03:02:25;;;;;;;1999.90;999.90;;;-0.80;99.90;;;;;;5005877;28;20042;-76
2024/01/08 03:04:52;;;;;;;1999.90;999.90;;;-0.80;99.90;;;;;;5005845;28;20034;-77
2024/01/08 03:07:20;;;;;;;1999.90;999.90;;;-0.80;99.90;;;;;;4989461;28;20048;-77
2024/01/08 03:09:46;;;;;;;1999.90;999.90;;;-0.80;99.90;;;;;;4988836;28;20061;-77
2024/01/08 03:12:13;;;;;;;1999.90;999.90;;;-0.80;99.90;;;;;;5005160;28;20052;-78
2024/01/08 03:14:39;;;;;;;1999.90;999.90;;;-0.80;99.90;;;;;;4987658;28;20466;-77
2024/01/08 03:17:04;;;;;;;1999.90;999.90;;;-0.80;99.90;;;;;;4988592;28;20057;-77
2024/01/08 03:19:30;;;;;;;1999.90;999.90;;;-0.80;99.90;;;;;;5002642;28;20167;-77
2024/01/08 03:21:56;;;;;;;1999.90;999.90;;;-0.80;99.90;;;;;;4989293;28;20049;-77
2024/01/08 03:24:21;;;;;;;1999.90;999.90;;;-0.80;99.90;;;;;;5001806;28;20037;-76
2024/01/08 03:26:47;;;;;;;1999.90;999.90;;;-0.80;99.90;;;;;;4983476;28;20487;-77
2024/01/08 03:29:13;;;;;;;1999.90;999.90;;;-0.80;99.90;;;;;;4983788;28;20034;-77
2024/01/08 03:31:43;;;;;;;1999.90;999.90;;;-0.80;99.90;;;;;;4984493;28;20053;-77
2024/01/08 03:34:08;;;;;;;1999.90;999.90;;;-0.80;99.90;;;;;;4986629;28;20042;-77
2024/01/08 03:36:34;;;;;;;1999.90;999.90;;;-0.80;99.90;;;;;;5002616;28;20044;-77
2024/01/08 03:39:00;;;;;;;1999.90;999.90;;;-0.90;99.90;;;;;;4987924;28;20061;-76
2024/01/08 03:41:26;;;;;;;1999.90;999.90;;;-0.80;99.90;;;;;;5004921;28;20544;-78
2024/01/08 03:43:52;;;;;;;1999.90;999.90;;;-0.90;99.90;;;;;;4988366;28;20426;-76
2024/01/08 03:46:17;;;;;;;1999.90;999.90;;;-0.90;99.90;;;;;;4987927;28;20034;-77
2024/01/08 03:48:43;;;;;;;1999.90;999.90;;;-0.90;99.90;;;;;;5005273;28;20034;-76
2024/01/08 03:51:09;;;;;;;1999.90;999.90;;;-1.00;99.90;;;;;;5005083;28;20125;-77
2024/01/08 03:53:34;;;;;;;1999.90;999.90;;;-1.00;99.90;;;;;;5003057;28;20046;-77
2024/01/08 03:56:00;;;;;;;1999.90;999.90;;;-1.00;99.90;;;;;;4988614;28;20420;-77
2024/01/08 03:58:25;;;;;;;1999.90;999.90;;;-1.00;99.90;;;;;;4986445;28;20049;-77
2024/01/08 04:00:52;;;;;;;1999.90;999.90;;;-1.00;99.90;;;;;;5004882;28;20168;-77
2024/01/08 04:03:17;;;;;;;1999.90;999.90;;;-1.00;99.90;;;;;;5004589;28;20041;-76
2024/01/08 04:05:43;;;;;;;1999.90;999.90;;;-1.00;99.90;;;;;;4988606;28;20026;-77
2024/01/08 04:08:09;;;;;;;1999.90;999.90;;;-1.00;99.90;;;;;;4988268;28;20046;-77
2024/01/08 04:10:34;;;;;;;1999.90;999.90;;;-1.10;99.90;;;;;;5004874;28;20109;-77
2024/01/08 04:13:00;;;;;;;1999.90;999.90;;;-1.20;99.90;;;;;;5002933;28;20046;-77
2024/01/08 04:15:26;;;;;;;1999.90;999.90;;;-1.20;99.90;;;;;;5004558;28;20045;-77
2024/01/08 04:17:51;;;;;;;1999.90;999.90;;;-1.20;99.90;;;;;;4987938;28;20491;-77
2024/01/08 04:20:17;;;;;;;1999.90;999.90;;;-0.40;99.90;;;;;;4986738;28;20144;-77
2024/01/08 04:22:45;;;;;;;1999.90;999.90;;;-1.20;99.90;;;;;;4989070;28;20061;-77
2024/01/08 04:25:10;;;;;;;1999.90;999.90;;;-1.20;99.90;;;;;;5004452;28;20046;-77
2024/01/08 04:27:36;;;;;;;1999.90;999.90;;;-1.20;99.90;;;;;;5003854;28;20038;-77
2024/01/08 04:30:02;;;;;;;1999.90;999.90;;;-1.30;99.90;;;;;;5004437;28;20410;-77
2024/01/08 04:32:28;;;;;;;1999.90;999.90;;;-1.30;99.90;;;;;;4988172;28;20042;-76
2024/01/08 04:34:53;;;;;;;1999.90;999.90;;;-1.30;99.90;;;;;;5004605;28;20052;-78
2024/01/08 04:37:19;;;;;;;1999.90;999.90;;;-1.30;99.90;;;;;;5004638;28;20518;-77
2024/01/08 04:39:45;;;;;;;1999.90;999.90;;;-1.40;99.90;;;;;;4988481;28;20042;-77
2024/01/08 04:42:10;;;;;;;1999.90;999.90;;;-1.40;99.90;;;;;;4988084;28;20555;-78
2024/01/08 04:44:36;;;;;;;1999.90;999.90;;;-1.50;99.90;;;;;;4987459;28;20045;-77
2024/01/08 04:47:01;;;;;;;1999.90;999.90;;;-1.50;99.90;;;;;;5004741;28;20196;-77
2024/01/08 04:49:27;;;;;;;1999.90;999.90;;;-1.50;99.90;;;;;;5004064;28;20041;-78
2024/01/08 04:51:53;;;;;;;1999.90;999.90;;;-1.60;99.90;;;;;;4988845;28;20042;-77
2024/01/08 04:54:18;;;;;;;1999.90;999.90;;;-1.50;99.90;;;;;;5004203;28;20088;-78
2024/01/08 04:56:45;;;;;;;1999.90;999.90;;;-0.80;99.90;;;;;;5005149;28;20069;-76
2024/01/08 04:59:11;;;;;;;1999.90;999.90;;;-1.50;99.90;;;;;;5003330;28;20183;-77
2024/01/08 05:01:37;;;;;;;1999.90;999.90;;;-1.40;99.90;;;;;;5005053;28;20125;-77
2024/01/08 05:04:04;;;;;;;1999.90;999.90;;;-1.60;99.90;;;;;;5005429;28;20391;-78
2024/01/08 05:06:29;;;;;;;1999.90;999.90;;;-1.60;99.90;;;;;;5003305;28;20115;-77
2024/01/08 05:08:55;;;;;;;1999.90;999.90;;;-1.70;99.90;;;;;;5004002;28;20081;-77
2024/01/08 05:11:20;;;;;;;1999.90;999.90;;;-1.70;99.90;;;;;;4985318;28;20037;-77
2024/01/08 05:13:46;;;;;;;1999.90;999.90;;;-1.70;99.90;;;;;;5003715;28;20042;-77
2024/01/08 05:16:12;;;;;;;1999.90;999.90;;;-1.70;99.90;;;;;;4999900;28;20515;-77
2024/01/08 05:18:37;;;;;;;1999.90;999.90;;;-1.80;99.90;;;;;;4984873;28;20054;-78
2024/01/08 05:21:04;;;;;;;1999.90;999.90;;;-1.70;99.90;;;;;;4984906;28;20042;-78
2024/01/08 05:23:30;;;;;;;1999.90;999.90;;;-1.70;99.90;;;;;;4983249;28;20030;-77
2024/01/08 05:25:59;;;;;;;1999.90;999.90;;;-1.70;99.90;;;;;;5000406;28;20045;-77
2024/01/08 05:28:29;;;;;;;1999.90;999.90;;;-1.60;99.90;;;;;;4982295;28;20034;-78
2024/01/08 05:30:55;;;;;;;1999.90;999.90;;;-1.70;99.90;;;;;;4985888;28;20113;-77
2024/01/08 05:33:21;;;;;;;1999.90;999.90;;;-1.60;99.90;;;;;;5001912;28;20100;-77
2024/01/08 05:35:47;;;;;;;1999.90;999.90;;;-1.70;99.90;;;;;;4997810;28;20038;-78
2024/01/08 05:38:13;;;;;;;1999.90;999.90;;;-1.80;99.90;;;;;;4984438;28;20324;-77
2024/01/08 05:40:38;;;;;;;1999.90;999.90;;;-1.80;99.90;;;;;;4991371;28;20042;-77
2024/01/08 05:43:04;;;;;;;1999.90;999.90;;;-1.80;99.90;;;;;;4985281;28;20406;-78
2024/01/08 05:45:30;;;;;;;1999.90;999.90;;;-1.90;99.90;;;;;;5001364;28;20046;-77
2024/01/08 05:47:56;;;;;;;1999.90;999.90;;;-1.90;99.90;;;;;;5007002;28;20049;-77
2024/01/08 05:50:25;;;;;;;1999.90;999.90;;;-1.90;99.90;;;;;;5003161;28;20068;-77
2024/01/08 05:52:52;;;;;;;1999.90;999.90;;;-1.80;99.90;;;;;;4984851;28;20049;-77
2024/01/08 05:55:18;;;;;;;1999.90;999.90;;;-1.80;99.90;;;;;;5004030;28;20046;-77
2024/01/08 05:57:43;;;;;;;1999.90;999.90;;;-1.80;99.90;;;;;;4985217;28;20042;-79
2024/01/08 06:00:09;;;;;;;1999.90;999.90;;;-1.80;99.90;;;;;;4989141;28;20576;-78
2024/01/08 06:02:35;;;;;;;1999.90;999.90;;;-1.80;99.90;;;;;;4985814;28;20092;-77
2024/01/08 06:05:01;;;;;;;1999.90;999.90;;;-1.70;99.90;;;;;;4986108;28;20043;-78
2024/01/08 06:07:26;;;;;;;1999.90;999.90;;;-1.20;99.90;;;;;;4984339;28;20070;-77
2024/01/08 06:09:52;;;;;;;1999.90;999.90;;;-1.60;99.90;;;;;;5004480;28;20030;-78
2024/01/08 06:12:17;;;;;;;1999.90;999.90;;;-1.60;99.90;;;;;;5006100;28;20046;-79
2024/01/08 06:14:43;;;;;;;1999.90;999.90;;;-1.50;99.90;;;;;;4986025;28;20038;-78
2024/01/08 06:17:12;;;;;;;1999.90;999.90;;;-1.50;99.90;;;;;;5003727;28;20360;-78
2024/01/08 06:19:37;;;;;;;1999.90;999.90;;;-1.50;99.90;;;;;;4986625;28;20060;-78
2024/01/08 06:22:03;;;;;;;1999.90;999.90;;;-1.40;99.90;;;;;;4989466;28;20042;-78
2024/01/08 06:24:29;;;;;;;1999.90;999.90;;;-1.40;99.90;;;;;;5001491;28;20408;-77
2024/01/08 06:26:54;;;;;;;1999.90;999.90;;;-1.40;99.90;;;;;;4989119;28;20025;-78
2024/01/08 06:29:20;;;;;;;1999.90;999.90;;;-1.30;99.90;;;;;;4985751;28;20142;-78
2024/01/08 06:31:46;;;;;;;1999.90;999.90;;;-1.30;99.90;;;;;;5006682;28;20543;-78
2024/01/08 06:34:11;;;;;;;1999.90;999.90;;;-1.30;99.90;;;;;;5003224;28;20410;-77
2024/01/08 06:36:38;;;;;;;1999.90;999.90;;;-1.30;99.90;;;;;;4985989;28;20494;-77
2024/01/08 06:39:05;;;;;;;1999.90;999.90;;;-1.30;99.90;;;;;;5004576;28;20038;-77
2024/01/08 06:41:30;;;;;;;1999.90;999.90;;;-1.20;99.90;;;;;;5005743;28;20047;-77
2024/01/08 06:43:56;;;;;;;1999.90;999.90;;;-1.20;99.90;;;;;;5002387;28;20045;-78
2024/01/08 06:46:22;;;;;;;1999.90;999.90;;;-1.20;99.90;;;;;;4987850;28;20093;-78
2024/01/08 06:48:48;;;;;;;1999.90;999.90;;;-1.20;99.90;;;;;;5008570;28;20052;-78
2024/01/08 06:51:13;;;;;;;1999.90;999.90;;;-1.20;99.90;;;;;;4987754;28;20120;-78
2024/01/08 06:53:39;;;;;;;1999.90;999.90;;;-1.10;99.90;;;;;;4992125;28;20042;-78
2024/01/08 06:56:05;;;;;;;1999.90;999.90;;;-1.10;99.90;;;;;;5008038;28;20039;-80
2024/01/08 06:58:31;;;;;;;1999.90;999.90;;;-1.10;99.90;;;;;;4987828;28;20042;-79
2024/01/08 07:00:57;;;;;;;1999.90;999.90;;;-1.10;99.90;;;;;;4996702;28;20046;-78
2024/01/08 07:03:24;;;;;;;1999.90;999.90;;;-1.10;99.90;;;;;;4990337;28;20045;-78
2024/01/08 07:05:50;;;;;;;1999.90;999.90;;;-1.10;99.90;;;;;;5012241;28;20042;-80
2024/01/08 07:08:15;;;;;;;1999.90;999.90;;;-1.00;99.90;;;;;;4993129;28;20030;-79
2024/01/08 07:10:41;;;;;;;1999.90;999.90;;;-1.00;99.90;;;;;;5008834;28;20035;-79
2024/01/08 07:13:07;;;;;;;1999.90;999.90;;;-1.00;99.90;;;;;;5008360;28;20038;-79
2024/01/08 07:15:40;;;;;;;1999.90;999.90;;;-1.00;99.90;;;;;;5009341;28;20571;-79
2024/01/08 07:18:08;;;;;;;1999.90;999.90;;;-1.00;99.90;;;;;;4988238;28;20034;-79
2024/01/08 07:20:36;;;;;;;1999.90;999.90;;;-1.00;99.90;;;;;;4991692;28;20053;-79
2024/01/08 07:23:02;;;;;;;1999.90;999.90;;;-0.90;99.90;;;;;;5008029;28;20129;-79
2024/01/08 07:25:28;;;;;;;1999.90;999.90;;;-0.90;99.90;;;;;;5004401;28;20053;-79
2024/01/08 07:27:53;;;;;;;1999.90;999.90;;;-0.10;99.90;;;;;;5007223;28;20038;-78
2024/01/08 07:30:20;;;;;;;1999.90;999.90;;;-0.90;99.90;;;;;;5001357;28;20056;-79
2024/01/08 07:32:47;;;;;;;1999.90;999.90;;;-0.90;99.90;;;;;;4991143;28;20046;-79
2024/01/08 07:35:13;;;;;;;1999.90;999.90;;;-0.20;99.90;;;;;;5005602;28;20065;-79
2024/01/08 07:37:39;;;;;;;1999.90;999.90;;;-0.80;99.90;;;;;;4989526;28;20041;-79
2024/01/08 07:40:05;;;;;;;1999.90;999.90;;;-0.90;99.90;;;;;;4987757;28;20037;-78
2024/01/08 07:42:31;;;;;;;1999.90;999.90;;;-0.80;99.90;;;;;;5007678;28;20042;-78
2024/01/08 07:44:58;;;;;;;1999.90;999.90;;;-0.80;99.90;;;;;;4989458;28;20041;-78
2024/01/08 07:47:23;;;;;;;1999.90;999.90;;;-0.70;99.90;;;;;;4989064;28;20294;-79
2024/01/08 07:49:49;;;;;;;1999.90;999.90;;;-0.80;99.90;;;;;;5002096;28;20045;-79
2024/01/08 07:52:15;;;;;;;1999.90;999.90;;;-0.70;99.90;;;;;;5004255;28;20049;-79
2024/01/08 07:54:40;;;;;;;1999.90;999.90;;;-0.70;99.90;;;;;;4991585;28;20038;-79
2024/01/08 07:57:06;;;;;;;1999.90;999.90;;;-0.70;99.90;;;;;;4989491;28;20426;-79
2024/01/08 07:59:32;;;;;;;1999.90;999.90;;;0.60;99.90;;;;;;4986235;28;20035;-79
2024/01/08 08:01:57;;;;;;;1999.90;999.90;;;-0.70;99.90;;;;;;4988668;28;20049;-78
2024/01/08 08:04:23;;;;;;;1999.90;999.90;;;-0.30;99.90;;;;;;4985402;28;20046;-79
2024/01/08 08:06:49;;;;;;;1999.90;999.90;;;-0.70;99.90;;;;;;4991579;28;20129;-78
2024/01/08 08:09:14;;;;;;;1999.90;999.90;;;-0.70;99.90;;;;;;5007715;28;20037;-79
2024/01/08 08:11:40;;;;;;;1999.90;999.90;;;-0.70;99.90;;;;;;5002127;28;20104;-79
2024/01/08 08:14:06;;;;;;;1999.90;999.90;;;-0.60;99.90;;;;;;4982201;28;20053;-78
2024/01/08 08:16:32;;;;;;;1999.90;999.90;;;0.30;99.90;;;;;;5005447;28;20589;-79
2024/01/08 08:18:58;;;;;;;1999.90;999.90;;;-0.60;99.90;;;;;;5006372;28;20081;-79
2024/01/08 08:21:24;;;;;;;1999.90;999.90;;;-0.40;99.90;;;;;;5004800;28;20093;-79
2024/01/08 08:23:50;;;;;;;1999.90;999.90;;;-0.60;99.90;;;;;;4990027;28;20048;-79
2024/01/08 08:26:17;;;;;;;1999.90;999.90;;;-0.60;99.90;;;;;;4990094;28;20445;-79
2024/01/08 08:28:43;;;;;;;1999.90;999.90;;;-0.60;99.90;;;;;;4986612;28;20034;-78
2024/01/08 08:31:08;;;;;;;1999.90;999.90;;;-0.50;99.90;;;;;;5002951;28;20030;-77
2024/01/08 08:33:34;;;;;;;1999.90;999.90;;;-0.50;99.90;;;;;;4983116;28;20038;-78
2024/01/08 08:35:59;;;;;;;1999.90;999.90;;;-0.50;99.90;;;;;;4985849;28;20042;-78
2024/01/08 08:38:25;;;;;;;1999.90;999.90;;;-0.50;99.90;;;;;;5000445;28;20074;-78
2024/01/08 08:40:51;;;;;;;1999.90;999.90;;;-0.10;99.90;;;;;;4983691;28;20117;-78
2024/01/08 08:43:16;;;;;;;1999.90;999.90;;;-0.40;99.90;;;;;;4984579;28;20118;-78
2024/01/08 08:45:42;;;;;;;1999.90;999.90;;;-0.40;99.90;;;;;;5003185;28;20033;-78
2024/01/08 08:48:09;;;;;;;1999.90;999.90;;;-0.40;99.90;;;;;;4987751;28;20057;-78
2024/01/08 08:50:35;;;;;;;1999.90;999.90;;;-0.40;99.90;;;;;;4990842;28;20276;-78
2024/01/08 08:53:02;;;;;;;1999.90;999.90;;;-0.30;99.90;;;;;;4986762;28;20056;-78
2024/01/08 08:55:28;;;;;;;1999.90;999.90;;;-0.30;99.90;;;;;;5001244;28;20049;-78
2024/01/08 08:57:54;;;;;;;1999.90;999.90;;;0.80;99.90;;;;;;5003706;28;20046;-78
2024/01/08 09:00:20;;;;;;;1999.90;999.90;;;-0.20;99.90;;;;;;4985447;28;20061;-78
2024/01/08 09:02:45;;;;;;;1999.90;999.90;;;-0.30;99.90;;;;;;4987427;28;20042;-77
2024/01/08 09:05:11;;;;;;;1999.90;999.90;;;-0.20;99.90;;;;;;4987079;28;20034;-77
2024/01/08 09:07:36;;;;;;;1999.90;999.90;;;-0.20;99.90;;;;;;4999691;28;20494;-78
2024/01/08 09:10:03;;;;;;;1999.90;999.90;;;-0.20;99.90;;;;;;4988684;28;20108;-78
2024/01/08 09:12:29;;;;;;;1999.90;999.90;;;-0.20;99.90;;;;;;4987600;28;20042;-78
2024/01/08 09:14:55;;;;;;;1999.90;999.90;;;-0.30;99.90;;;;;;4991679;28;20038;-77
2024/01/08 09:17:21;;;;;;;1999.90;999.90;;;-0.30;99.90;;;;;;4995794;28;20040;-78
2024/01/08 09:19:49;;;;;;;1999.90;999.90;;;-0.30;99.90;;;;;;4982267;28;20042;-77
2024/01/08 09:22:15;;;;;;;1999.90;999.90;;;0.20;99.90;;;;;;4985842;28;20038;-77
2024/01/08 09:24:40;;;;;;;1999.90;999.90;;;-0.20;99.90;;;;;;4993120;28;20045;-80
2024/01/08 09:27:06;;;;;;;1999.90;999.90;;;-0.20;99.90;;;;;;4987747;28;20034;-80
2024/01/08 09:29:32;;;;;;;1999.90;999.90;;;1.00;99.90;;;;;;4984544;28;20038;-78
2024/01/08 09:31:57;;;;;;;1999.90;999.90;;;-0.10;99.90;;;;;;4996627;28;20487;-79
2024/01/08 09:34:23;;;;;;;1999.90;999.90;;;0.40;99.90;;;;;;5014572;28;20297;-80
2024/01/08 09:36:49;;;;;;;1999.90;999.90;;;0.00;99.90;;;;;;4991269;28;20038;-79
2024/01/08 09:39:14;;;;;;;1999.90;999.90;;;0.00;99.90;;;;;;5006259;28;20038;-80
2024/01/08 09:41:41;;;;;;;1999.90;999.90;;;1.10;99.90;;;;;;4996321;28;20038;-80
2024/01/08 09:44:06;;;;;;;1999.90;999.90;;;0.00;99.90;;;;;;4989768;28;20038;-79
2024/01/08 09:46:39;;;;;;;1999.90;999.90;;;0.00;99.90;;;;;;4985416;28;20038;-80
2024/01/08 09:49:05;;;;;;;1999.90;999.90;;;0.00;99.90;;;;;;4990889;28;20227;-80
2024/01/08 09:51:31;;;;;;;1999.90;999.90;;;0.40;99.90;;;;;;4997953;28;20237;-80
2024/01/08 09:53:59;;;;;;;1999.90;999.90;;;0.10;99.90;;;;;;4995912;28;20034;-80
2024/01/08 09:56:26;;;;;;;1999.90;999.90;;;0.10;99.90;;;;;;4989407;28;20046;-81
2024/01/08 09:58:51;;;;;;;1999.90;999.90;;;0.10;99.90;;;;;;5003916;28;20049;-80
2024/01/08 10:01:17;;;;;;;1999.90;999.90;;;0.20;99.90;;;;;;5010240;28;20042;-80
2024/01/08 10:03:43;;;;;;;1999.90;999.90;;;0.20;99.90;;;;;;4993072;28;20092;-80
2024/01/08 10:06:09;;;;;;;1999.90;999.90;;;1.40;99.90;;;;;;4993942;28;20038;-80
2024/01/08 10:08:35;;;;;;;1999.90;999.90;;;0.30;99.90;;;;;;5010321;28;20033;-80
2024/01/08 10:11:02;;;;;;;1999.90;999.90;;;0.20;99.90;;;;;;4991862;28;20514;-80
2024/01/08 10:13:28;;;;;;;1999.90;999.90;;;0.20;99.90;;;;;;4988654;28;20041;-80
2024/01/08 10:15:54;;;;;;;1999.90;999.90;;;1.10;99.90;;;;;;5011821;28;20118;-80
2024/01/08 10:18:22;;;;;;;1999.90;999.90;;;0.40;99.90;;;;;;5008212;28;20072;-80
2024/01/08 10:20:48;;;;;;;1999.90;999.90;;;0.60;99.90;;;;;;5010094;28;20133;-80
2024/01/08 10:23:16;;;;;;;1999.90;999.90;;;0.30;99.90;;;;;;4999710;28;20076;-80
2024/01/08 10:25:51;;;;;;;1999.90;999.90;;;0.30;99.90;;;;;;5007427;28;20046;-80
2024/01/08 10:28:20;;;;;;;1999.90;907.47;;;0.30;99.90;;;;;;4990409;28;20038;-78
2024/01/08 10:30:47;;;;;;;1999.90;978.97;;;0.20;99.90;;;;;;4987750;28;20049;-79
2024/01/08 10:33:18;;;;;;;1999.90;999.90;;;0.40;99.90;;;;;;5003168;28;20038;-79
2024/01/08 10:35:45;;;;;;;1999.90;999.90;;;0.40;99.90;;;;;;4987777;28;20042;-79
2024/01/08 10:38:12;;;;;;;1999.90;999.90;;;1.20;99.90;;;;;;4987373;28;20042;-79
2024/01/08 10:40:37;;;;;;;1999.90;999.90;;;1.40;99.90;;;;;;4987255;28;20541;-79
2024/01/08 10:43:03;;;;;;;1999.90;999.90;;;0.40;99.90;;;;;;5007880;28;20129;-79
2024/01/08 10:45:29;;;;;;;1999.90;999.90;;;0.50;99.90;;;;;;4993721;28;20048;-79
2024/01/08 10:48:18;;;;;;;1999.90;999.90;;;0.40;99.90;;;;;;4991887;28;20044;-80
2024/01/08 10:50:45;;;;;;;1999.90;830.25;;;0.40;99.90;;;;;;5013075;28;20048;-79
2024/01/08 10:53:27;;;;;;;1999.90;999.90;;;0.40;99.90;;;;;;4989014;28;20037;-79
2024/01/08 10:55:53;;;;;;;1999.90;999.90;;;0.40;99.90;;;;;;4987993;28;20551;-79
2024/01/08 10:58:33;;;;;;;1999.90;882.92;;;0.50;99.90;;;;;;4987476;28;20085;-79
2024/01/08 11:01:00;;;;;;;1999.90;999.90;;;0.40;99.90;;;;;;4991492;28;20042;-78
2024/01/08 11:03:27;;;;;;;1999.90;999.90;;;0.40;99.90;;;;;;4989674;28;20112;-79
2024/01/08 11:05:54;;;;;;;1999.90;999.90;;;0.50;99.90;;;;;;4986707;28;20040;-79
2024/01/08 11:08:24;;;;;;;1999.90;999.90;;;0.50;99.90;;;;;;5004193;28;20541;-79
2024/01/08 11:10:50;;;;;;;1999.90;999.90;;;0.50;99.90;;;;;;4987937;28;20030;-79
2024/01/08 11:13:16;;;;;;;1999.90;623.53;;;0.50;99.90;;;;;;4989338;28;20034;-78
2024/01/08 11:15:48;;;;;;;1999.90;999.90;;;0.50;99.90;;;;;;5017825;28;20415;-78
2024/01/08 11:18:25;;;;;;;1999.90;999.90;;;0.50;99.90;;;;;;5011394;28;20053;-79
2024/01/08 11:20:51;;;;;;;1999.90;908.35;;;1.50;99.90;;;;;;4998263;28;20062;-79
2024/01/08 11:23:38;;;;;;;1999.90;999.90;;;0.40;99.90;;;;;;5004546;28;20037;-79
2024/01/08 11:26:11;;;;;;;1999.90;999.90;;;0.40;99.90;;;;;;4990980;28;20510;-79
2024/01/08 11:28:39;;;;;;;1999.90;999.90;;;0.50;99.90;;;;;;4987851;28;20036;-78
2024/01/08 11:31:29;;;;;;;1999.90;999.90;;;1.80;99.90;;;;;;5007269;28;20034;-80
2024/01/08 11:34:16;;;;;;;1999.90;999.90;;;0.60;99.90;;;;;;5009673;28;20041;-79
2024/01/08 11:36:48;;;;;;;1999.90;999.90;;;0.60;99.90;;;;;;4989170;28;20038;-79
2024/01/08 11:39:20;;;;;;;1999.90;999.90;;;1.60;99.90;;;;;;4994248;28;20038;-79
2024/01/08 11:41:47;;;;;;;1999.90;999.90;;;0.70;99.90;;;;;;4987079;28;20038;-79
2024/01/08 11:44:15;;;;;;;1999.90;999.90;;;0.70;99.90;;;;;;4991302;28;20026;-79
2024/01/08 11:46:42;;;;;;;1999.90;999.90;;;1.60;99.90;;;;;;5003409;28;20046;-80
2024/01/08 11:49:09;;;;;;;1999.90;999.90;;;0.70;99.90;;;;;;4991497;28;20388;-78
2024/01/08 11:51:44;;;;;;;1999.90;999.90;;;0.80;99.90;;;;;;5006884;28;20038;-80
2024/01/08 11:54:18;;;;;;;1999.90;999.90;;;0.70;99.90;;;;;;4996904;28;20042;-79
2024/01/08 11:56:44;;;;;;;;;;;0.60;99.90;;;;;;4990128;28;20494;-79
2024/01/08 11:59:09;;;;;;;1999.90;999.90;;;0.60;99.90;;;;;;5006990;28;19922;-80